createdAt,value
2017-12-22T00:02:11.224Z,2.50
2017-12-22T00:04:39.428Z,2.60
2017-12-22T00:07:07.610Z,2.50
2017-12-22T00:09:35.788Z,2.50
2017-12-22T00:12:03.964Z,2.50
2017-12-22T00:14:32.139Z,2.50
2017-12-22T00:17:00.320Z,2.50
2017-12-22T00:19:28.487Z,2.50
2017-12-22T00:21:56.651Z,2.50
2017-12-22T00:24:24.811Z,2.60
2017-12-22T00:26:53.022Z,2.60
2017-12-22T00:29:21.185Z,2.60
2017-12-22T00:31:49.352Z,2.60
2017-12-22T00:34:17.512Z,2.60
2017-12-22T00:36:45.684Z,2.50
2017-12-22T00:39:13.843Z,2.50
2017-12-22T00:41:42.030Z,2.40
2017-12-22T00:44:10.286Z,2.40
2017-12-22T00:46:38.458Z,2.40
2017-12-22T00:49:07.389Z,2.40
2017-12-22T00:51:35.598Z,2.30
2017-12-22T00:54:03.806Z,2.40
2017-12-22T00:56:31.983Z,2.30
2017-12-22T00:59:00.151Z,2.30
2017-12-22T01:01:28.321Z,2.20
2017-12-22T01:03:57.322Z,2.20
2017-12-22T01:06:25.447Z,2.10
2017-12-22T01:08:53.610Z,2.20
2017-12-22T01:11:22.538Z,2.10
2017-12-22T01:13:51.475Z,2.00
2017-12-22T01:19:22.128Z,1.90
2017-12-22T01:21:50.286Z,1.90
2017-12-22T01:24:18.453Z,1.80
2017-12-22T01:26:46.620Z,1.80
2017-12-22T01:29:15.592Z,1.80
2017-12-22T01:31:43.757Z,1.80
2017-12-22T01:34:11.918Z,1.80
2017-12-22T01:36:40.083Z,1.80
2017-12-22T01:39:08.286Z,1.90
2017-12-22T01:41:36.454Z,2.00
2017-12-22T01:44:04.609Z,1.90
2017-12-22T01:46:32.790Z,1.80
2017-12-22T01:49:00.994Z,1.70
2017-12-22T01:51:29.918Z,1.60
2017-12-22T01:53:58.077Z,1.60
2017-12-22T01:56:27.014Z,1.60
2017-12-22T01:58:55.171Z,1.50
2017-12-22T02:01:23.330Z,1.60
2017-12-22T02:03:51.538Z,1.70
2017-12-22T02:06:19.703Z,1.70
2017-12-22T02:08:47.871Z,1.70
2017-12-22T02:11:16.044Z,1.80
2017-12-22T02:13:44.218Z,1.80
2017-12-22T02:16:13.073Z,1.80
2017-12-22T02:18:42.039Z,1.70
2017-12-22T02:21:10.206Z,1.70
2017-12-22T02:23:38.370Z,1.80
2017-12-22T02:26:06.582Z,1.80
2017-12-22T02:28:35.513Z,1.70
2017-12-22T02:31:03.738Z,1.70
2017-12-22T02:33:31.900Z,1.70
2017-12-22T02:36:00.055Z,1.60
2017-12-22T02:38:28.249Z,1.50
2017-12-22T02:40:56.404Z,1.50
2017-12-22T02:43:24.567Z,1.40
2017-12-22T02:45:52.742Z,1.40
2017-12-22T02:48:20.902Z,1.40
2017-12-22T02:50:50.297Z,1.40
2017-12-22T02:53:18.467Z,1.40
2017-12-22T02:55:46.631Z,1.40
2017-12-22T02:58:15.568Z,1.40
2017-12-22T03:00:43.730Z,1.30
2017-12-22T03:03:11.900Z,1.30
2017-12-22T03:05:40.051Z,1.30
2017-12-22T03:08:08.982Z,1.20
2017-12-22T03:10:37.134Z,1.10
2017-12-22T03:13:05.319Z,1.10
2017-12-22T03:15:33.490Z,1.10
2017-12-22T03:18:01.712Z,1.00
2017-12-22T03:20:29.870Z,1.10
2017-12-22T03:22:58.038Z,1.10
2017-12-22T03:25:26.218Z,1.10
2017-12-22T03:27:54.382Z,1.10
2017-12-22T03:30:22.546Z,1.10
2017-12-22T03:32:50.711Z,1.00
2017-12-22T03:35:18.866Z,1.00
2017-12-22T03:37:47.032Z,1.10
2017-12-22T03:40:15.958Z,1.10
2017-12-22T03:42:44.114Z,1.10
2017-12-22T03:45:12.326Z,1.10
2017-12-22T03:47:40.483Z,1.10
2017-12-22T03:50:08.644Z,1.00
2017-12-22T03:52:36.815Z,1.00
2017-12-22T03:55:04.983Z,0.90
2017-12-22T03:57:33.141Z,0.90
2017-12-22T04:00:02.122Z,0.80
2017-12-22T04:02:31.063Z,0.80
2017-12-22T04:04:59.222Z,0.70
2017-12-22T04:07:27.391Z,0.80
2017-12-22T04:09:55.548Z,0.70
2017-12-22T04:12:24.478Z,0.70
2017-12-22T04:14:52.643Z,0.70
2017-12-22T04:17:20.803Z,0.70
2017-12-22T04:19:48.975Z,0.70
2017-12-22T04:22:17.182Z,0.70
2017-12-22T04:24:45.334Z,0.70
2017-12-22T04:27:13.550Z,0.60
2017-12-22T04:29:41.729Z,0.60
2017-12-22T04:32:09.891Z,0.70
2017-12-22T04:34:38.057Z,0.70
2017-12-22T04:37:06.230Z,0.70
2017-12-22T04:39:34.396Z,0.70
2017-12-22T04:42:02.586Z,0.60
2017-12-22T04:44:30.762Z,0.50
2017-12-22T04:46:58.972Z,0.50
2017-12-22T04:49:27.142Z,0.50
2017-12-22T04:51:55.306Z,0.50
2017-12-22T04:54:23.497Z,0.50
2017-12-22T04:56:52.432Z,0.30
2017-12-22T04:59:20.592Z,0.30
2017-12-22T05:01:48.794Z,0.30
2017-12-22T05:04:16.959Z,0.20
2017-12-22T05:06:45.118Z,0.20
2017-12-22T05:09:13.333Z,0.10
2017-12-22T05:11:41.497Z,0.10
2017-12-22T05:14:09.658Z,0.10
2017-12-22T05:16:37.817Z,0.00
2017-12-22T05:19:06.027Z,0.00
2017-12-22T05:21:34.191Z,0.00
2017-12-22T05:24:02.372Z,0.00
2017-12-22T05:26:30.547Z,0.00
2017-12-22T05:28:58.741Z,0.10
2017-12-22T05:31:26.903Z,0.10
2017-12-22T05:33:55.062Z,0.10
2017-12-22T05:36:23.262Z,0.20
2017-12-22T05:38:51.438Z,0.20
2017-12-22T05:41:19.602Z,0.20
2017-12-22T05:43:47.767Z,0.10
2017-12-22T05:46:15.938Z,0.10
2017-12-22T05:48:44.866Z,0.10
2017-12-22T05:51:13.039Z,0.00
2017-12-22T05:53:41.215Z,0.10
2017-12-22T05:56:09.415Z,0.00
2017-12-22T05:58:38.351Z,0.10
2017-12-22T06:01:06.509Z,0.00
2017-12-22T06:03:34.694Z,0.10
2017-12-22T06:06:02.860Z,0.10
2017-12-22T06:08:31.017Z,0.10
2017-12-22T06:10:59.179Z,0.10
2017-12-22T06:13:27.342Z,0.10
2017-12-22T06:15:56.316Z,0.10
2017-12-22T06:18:24.486Z,0.00
2017-12-22T06:20:52.647Z,0.10
2017-12-22T06:23:20.868Z,0.10
2017-12-22T06:25:49.790Z,0.20
2017-12-22T06:28:18.002Z,0.10
2017-12-22T06:30:46.158Z,0.20
2017-12-22T06:33:15.109Z,0.20
2017-12-22T06:35:43.290Z,0.10
2017-12-22T06:38:11.456Z,0.20
2017-12-22T06:40:39.670Z,0.10
2017-12-22T06:43:07.891Z,0.10
2017-12-22T06:45:36.827Z,0.20
2017-12-22T06:48:04.998Z,0.10
2017-12-22T06:50:33.162Z,0.20
2017-12-22T06:53:01.318Z,0.20
2017-12-22T06:55:29.487Z,0.20
2017-12-22T06:57:58.415Z,0.20
2017-12-22T07:00:26.570Z,0.20
2017-12-22T07:02:54.722Z,0.30
2017-12-22T07:05:23.654Z,0.30
2017-12-22T07:07:51.815Z,0.30
2017-12-22T07:10:20.025Z,0.30
2017-12-22T07:12:48.150Z,0.30
2017-12-22T07:15:16.323Z,0.30
2017-12-22T07:17:45.290Z,0.20
2017-12-22T07:20:13.498Z,0.20
2017-12-22T07:22:41.664Z,0.30
2017-12-22T07:25:10.584Z,0.30
2017-12-22T07:27:38.734Z,0.20
2017-12-22T07:30:06.978Z,0.30
2017-12-22T07:32:35.130Z,0.30
2017-12-22T07:35:03.297Z,0.40
2017-12-22T07:37:31.506Z,0.40
2017-12-22T07:39:59.677Z,0.50
2017-12-22T07:42:27.845Z,0.50
2017-12-22T07:44:56.011Z,0.60
2017-12-22T07:47:24.171Z,0.70
2017-12-22T07:49:52.331Z,0.80
2017-12-22T07:52:20.514Z,0.90
2017-12-22T07:54:48.695Z,1.10
2017-12-22T07:57:16.857Z,1.20
2017-12-22T07:59:45.057Z,1.30
2017-12-22T08:02:13.222Z,1.40
2017-12-22T08:04:41.397Z,1.50
2017-12-22T08:07:09.610Z,1.60
2017-12-22T08:09:38.548Z,2.00
2017-12-22T08:12:06.753Z,1.90
2017-12-22T08:14:34.920Z,2.20
2017-12-22T08:17:03.080Z,2.40
2017-12-22T08:19:31.258Z,2.60
2017-12-22T08:21:59.420Z,2.80
2017-12-22T08:24:27.586Z,3.00
2017-12-22T08:26:55.802Z,3.10
2017-12-22T08:29:24.018Z,3.20
2017-12-22T08:31:52.184Z,3.30
2017-12-22T08:34:21.181Z,3.40
2017-12-22T08:36:50.133Z,3.40
2017-12-22T08:39:18.298Z,3.40
2017-12-22T08:41:46.555Z,3.50
2017-12-22T08:44:14.768Z,3.60
2017-12-22T10:08:40.676Z,3.90
2017-12-22T10:11:09.627Z,6.50
2017-12-22T10:13:38.240Z,6.50
2017-12-22T10:16:06.409Z,6.70
2017-12-22T10:18:34.618Z,6.80
2017-12-22T10:21:02.775Z,6.90
2017-12-22T10:23:31.745Z,7.10
2017-12-22T10:25:59.963Z,7.00
2017-12-22T10:28:28.124Z,7.20
2017-12-22T10:30:57.083Z,8.00
2017-12-22T10:33:25.261Z,7.90
2017-12-22T10:35:53.440Z,8.20
2017-12-22T10:38:21.696Z,8.60
2017-12-22T10:40:49.903Z,9.90
2017-12-22T10:43:18.082Z,11.20
2017-12-22T10:45:47.029Z,13.80
2017-12-22T10:48:15.263Z,13.70
2017-12-22T10:50:44.211Z,18.10
2017-12-22T10:53:12.382Z,18.00
2017-12-22T10:55:40.563Z,19.80
2017-12-22T10:58:08.727Z,21.40
2017-12-22T11:00:36.900Z,23.90
2017-12-22T11:03:05.080Z,25.80
2017-12-22T11:05:33.240Z,27.20
2017-12-22T11:08:01.412Z,28.40
2017-12-22T11:10:29.596Z,29.00
2017-12-22T11:12:57.765Z,29.30
2017-12-22T11:15:25.922Z,27.70
2017-12-22T11:17:54.082Z,23.90
2017-12-22T11:20:23.010Z,17.90
2017-12-22T11:22:51.223Z,17.80
2017-12-22T11:25:19.408Z,16.20
2017-12-22T11:27:48.354Z,14.90
2017-12-22T11:30:16.522Z,14.80
2017-12-22T11:32:44.694Z,15.20
2017-12-22T11:35:12.854Z,16.70
2017-12-22T11:37:41.041Z,17.70
2017-12-22T11:40:09.220Z,18.60
2017-12-22T11:42:37.382Z,20.80
2017-12-22T11:45:05.564Z,22.10
2017-12-22T11:47:33.723Z,23.40
2017-12-22T11:50:01.884Z,24.30
2017-12-22T11:52:30.823Z,20.50
2017-12-22T11:54:58.983Z,20.40
2017-12-22T11:57:27.143Z,18.30
2017-12-22T11:59:55.306Z,17.20
2017-12-22T12:02:23.471Z,16.00
2017-12-22T12:04:52.416Z,14.00
2017-12-22T12:07:20.578Z,13.90
2017-12-22T12:09:48.768Z,13.50
2017-12-22T12:12:16.933Z,13.00
2017-12-22T12:14:45.145Z,12.70
2017-12-22T12:17:13.319Z,12.90
2017-12-22T12:19:41.488Z,12.80
2017-12-22T12:22:09.658Z,12.60
2017-12-22T12:24:37.814Z,14.30
2017-12-22T12:27:05.976Z,16.50
2017-12-22T12:29:34.146Z,17.50
2017-12-22T12:32:02.322Z,16.60
2017-12-22T12:34:30.500Z,15.50
2017-12-22T12:36:58.711Z,14.50
2017-12-22T12:39:26.919Z,13.60
2017-12-22T12:41:55.087Z,13.10
2017-12-22T12:44:24.017Z,12.20
2017-12-22T12:46:52.182Z,12.20
2017-12-22T12:49:20.400Z,11.90
2017-12-22T12:51:48.566Z,11.70
2017-12-22T12:54:16.754Z,11.50
2017-12-22T12:56:44.935Z,11.40
2017-12-22T12:59:13.873Z,11.10
2017-12-22T13:01:42.052Z,11.00
2017-12-22T13:04:10.266Z,11.00
2017-12-22T13:06:38.471Z,10.80
2017-12-22T13:09:06.603Z,10.70
2017-12-22T13:11:34.778Z,10.70
2017-12-22T13:14:02.954Z,10.50
2017-12-22T13:16:31.138Z,10.60
2017-12-22T13:18:59.307Z,10.70
2017-12-22T13:21:27.488Z,10.80
2017-12-22T13:23:55.650Z,11.60
2017-12-22T13:26:23.858Z,14.10
2017-12-22T13:28:52.794Z,17.60
2017-12-22T13:31:20.972Z,17.50
2017-12-22T13:33:49.142Z,16.20
2017-12-22T13:36:17.358Z,14.10
2017-12-22T13:38:45.531Z,13.00
2017-12-22T13:41:13.742Z,12.10
2017-12-22T13:43:41.916Z,11.20
2017-12-22T13:46:10.086Z,10.40
2017-12-22T13:48:38.254Z,10.00
2017-12-22T13:51:07.182Z,8.70
2017-12-22T13:53:35.346Z,8.60
2017-12-22T13:56:03.930Z,8.50
2017-12-22T13:58:32.089Z,8.30
2017-12-22T14:01:00.257Z,8.20
2017-12-22T14:03:28.454Z,8.10
2017-12-22T14:05:56.609Z,8.00
2017-12-22T14:08:25.014Z,7.90
2017-12-22T14:10:53.166Z,7.70
2017-12-22T14:13:21.358Z,7.60
2017-12-22T14:15:49.532Z,7.40
2017-12-22T14:18:17.690Z,7.20
2017-12-22T14:20:45.888Z,7.10
2017-12-22T14:23:14.042Z,7.00
2017-12-22T14:25:42.246Z,7.00
2017-12-22T14:28:10.414Z,7.00
2017-12-22T14:30:38.589Z,7.00
2017-12-22T14:33:06.769Z,7.10
2017-12-22T14:35:35.714Z,7.20
2017-12-22T14:38:04.659Z,7.30
2017-12-22T14:40:32.894Z,7.20
2017-12-22T14:43:01.055Z,7.30
2017-12-22T14:45:29.983Z,7.30
2017-12-22T14:47:58.168Z,7.30
2017-12-22T14:50:26.341Z,7.30
2017-12-22T14:52:54.502Z,7.20
2017-12-22T14:55:22.678Z,7.10
2017-12-22T14:57:50.862Z,7.00
2017-12-22T15:00:19.031Z,6.90
2017-12-22T15:02:47.222Z,6.80
2017-12-22T15:05:15.398Z,6.70
2017-12-22T15:07:43.567Z,6.60
2017-12-22T15:10:11.747Z,6.50
2017-12-22T15:12:39.923Z,6.50
2017-12-22T15:15:08.103Z,6.50
2017-12-22T15:17:36.315Z,6.40
2017-12-22T15:20:04.497Z,6.40
2017-12-22T15:22:32.678Z,6.30
2017-12-22T15:25:00.850Z,6.30
2017-12-22T15:27:29.028Z,6.20
2017-12-22T15:29:57.220Z,6.10
2017-12-22T15:32:25.394Z,6.10
2017-12-22T15:34:53.568Z,6.10
2017-12-22T15:37:21.853Z,6.10
2017-12-22T15:39:50.020Z,5.90
2017-12-22T15:42:18.198Z,5.90
2017-12-22T15:44:46.401Z,5.80
2017-12-22T15:47:14.574Z,5.70
2017-12-22T15:49:42.776Z,5.70
2017-12-22T15:52:11.002Z,5.60
2017-12-22T15:54:39.174Z,5.50
2017-12-22T15:57:07.396Z,5.40
2017-12-22T15:59:35.582Z,5.30
2017-12-22T16:02:04.521Z,5.10
2017-12-22T16:04:32.709Z,5.00
2017-12-22T16:07:00.934Z,5.00
2017-12-22T16:09:29.897Z,4.80
2017-12-22T16:11:58.078Z,4.70
2017-12-22T16:14:26.269Z,4.80
2017-12-22T16:16:55.289Z,4.70
2017-12-22T16:19:23.544Z,4.60
2017-12-22T16:21:52.523Z,4.60
2017-12-22T16:24:20.757Z,4.50
2017-12-22T16:26:48.975Z,4.50
2017-12-22T16:29:17.499Z,4.50
2017-12-22T16:31:45.725Z,4.50
2017-12-22T16:34:13.921Z,4.60
2017-12-22T16:36:42.882Z,4.60
2017-12-22T16:39:11.081Z,4.50
2017-12-22T16:41:40.082Z,4.60
2017-12-22T16:44:09.025Z,4.60
2017-12-22T16:46:37.218Z,4.60
2017-12-22T16:49:05.395Z,4.50
2017-12-22T16:51:33.592Z,4.50
2017-12-22T16:54:02.559Z,4.40
2017-12-22T16:56:30.771Z,4.30
2017-12-22T16:58:59.718Z,4.30
2017-12-22T17:01:27.905Z,4.20
2017-12-22T17:03:56.126Z,4.20
2017-12-22T17:06:24.318Z,4.20
2017-12-22T17:08:52.488Z,4.20
2017-12-22T17:11:20.670Z,4.20
2017-12-22T17:13:48.858Z,4.10
2017-12-22T17:16:17.054Z,4.10
2017-12-22T17:18:45.234Z,4.00
2017-12-22T17:21:13.419Z,4.00
2017-12-22T17:23:41.631Z,4.00
2017-12-22T17:26:09.850Z,4.10
2017-12-22T17:28:38.024Z,4.10
2017-12-22T17:31:06.214Z,4.00
2017-12-22T17:33:34.407Z,4.10
2017-12-22T17:36:03.355Z,4.00
2017-12-22T17:38:31.552Z,3.90
2017-12-22T17:40:59.733Z,3.90
2017-12-22T17:43:27.910Z,3.90
2017-12-22T17:45:56.092Z,3.80
2017-12-22T17:48:25.048Z,3.70
2017-12-22T17:50:53.250Z,3.60
2017-12-22T17:53:21.485Z,3.60
2017-12-22T17:55:49.682Z,3.60
2017-12-22T17:58:17.888Z,3.50
2017-12-22T18:00:46.861Z,3.40
2017-12-22T18:03:15.074Z,3.40
2017-12-22T18:05:43.270Z,3.40
2017-12-22T18:08:11.480Z,3.40
2017-12-22T18:10:39.680Z,3.20
2017-12-22T18:13:08.679Z,3.20
2017-12-22T18:15:37.621Z,3.10
2017-12-22T18:18:05.813Z,3.10
2017-12-22T18:20:33.984Z,3.10
2017-12-22T18:23:02.180Z,3.10
2017-12-22T18:25:30.380Z,3.10
2017-12-22T18:27:59.457Z,3.10
2017-12-22T18:30:27.703Z,3.00
2017-12-22T18:32:55.918Z,3.00
2017-12-22T18:35:24.901Z,3.00
2017-12-22T18:37:53.083Z,3.00
2017-12-22T18:40:22.017Z,3.00
2017-12-22T18:42:50.240Z,2.90
2017-12-22T18:45:18.421Z,2.90
2017-12-22T18:47:47.377Z,2.90
2017-12-22T18:50:15.559Z,2.80
2017-12-22T18:52:43.762Z,2.90
2017-12-22T18:55:11.959Z,2.90
2017-12-22T18:57:40.152Z,3.00
2017-12-22T19:00:08.402Z,3.00
2017-12-22T19:02:37.383Z,3.10
2017-12-22T19:05:05.562Z,3.00
2017-12-22T19:07:34.513Z,3.20
2017-12-22T19:10:02.724Z,3.10
2017-12-22T19:12:30.910Z,3.20
2017-12-22T19:14:59.847Z,3.30
2017-12-22T19:17:28.034Z,3.20
2017-12-22T19:19:56.222Z,3.30
2017-12-22T19:22:24.416Z,3.30
2017-12-22T19:24:52.602Z,3.30
2017-12-22T19:27:21.543Z,3.30
2017-12-22T19:29:49.733Z,3.30
2017-12-22T19:32:17.911Z,3.30
2017-12-22T19:34:46.100Z,3.40
2017-12-22T19:37:14.327Z,3.30
2017-12-22T19:39:42.539Z,3.30
2017-12-22T19:42:10.700Z,3.20
2017-12-22T19:44:38.899Z,3.10
2017-12-22T19:47:07.092Z,3.10
2017-12-22T19:49:36.042Z,3.00
2017-12-22T19:52:04.221Z,2.90
2017-12-22T19:54:32.412Z,3.00
2017-12-22T19:57:00.625Z,3.00
2017-12-22T19:59:28.799Z,3.00
2017-12-22T20:01:56.980Z,3.00
2017-12-22T20:04:25.153Z,3.00
2017-12-22T20:06:53.319Z,3.10
2017-12-22T20:09:21.492Z,3.00
2017-12-22T20:11:50.431Z,3.10
2017-12-22T20:14:18.604Z,3.00
2017-12-22T20:16:46.774Z,3.10
2017-12-22T20:19:14.945Z,3.10
2017-12-22T20:21:43.164Z,3.10
2017-12-22T20:24:11.332Z,3.10
2017-12-22T20:26:39.511Z,3.10
2017-12-22T20:29:08.500Z,3.20
2017-12-22T20:31:36.680Z,3.10
2017-12-22T20:34:05.658Z,3.30
